Latest Weather Observations for Smithton

IDT60801

Issued at 1:31 pm EDT Friday 6 March 2015 (issued every 30 minutes, with the page automatically refreshed every 10 minutes)

About weather observations | Map of weather stations | Latest weather observations for TAS | Other Formats
Station Details ID: 091292 Name: SMITHTON AERODROME Lat: -40.83 Lon: 145.08 Height: 7.5 m
Data from the previous 72 hours. | See also: Recent months at Smithton
Date/Time
EDT
Temp
°C
App
Temp
°C
Dew
Point
Rel
Hum
%
Delta-T
°C
Wind Press
QNH
hPa
Press
MSL
hPa
Rain
since 9 am
mm
Dir
 
Spd
km/h
Gust
km/h
Spd
kts
Gust
kts
06/01:30pm 16.8 7.8 7.2 53 4.8 SW 44 61 24 33 1006.2 - 0.2
06/01:08pm 15.9 7.1 7.1 56 4.4 SSW 43 61 23 33 1006.2 - 0.2
06/01:00pm 16.2 6.6 6.3 52 4.8 SW 46 59 25 32 1006.1 - 0.2
06/12:47pm 16.2 6.7 6.9 54 4.6 SSW 46 65 25 35 1006.3 - 0.2
06/12:30pm 15.7 5.8 6.7 55 4.4 SW 48 63 26 34 1006.0 - 0.2
06/12:00pm 16.3 7.4 7.5 56 4.4 SSW 44 65 24 35 1006.0 1006.0 0.2
06/11:30am 14.9 7.9 8.4 65 3.3 SSW 35 54 19 29 1005.9 - 0.2
06/11:26am 14.4 7.6 7.7 64 3.3 SSW 33 54 18 29 1005.8 - 0.2
06/11:00am 14.8 7.9 8.7 67 3.1 SSW 35 48 19 26 1005.1 - 0.2
06/10:33am 14.0 5.6 9.6 75 2.3 SW 44 63 24 34 1005.0 - 0.2
06/10:30am 13.8 4.5 9.0 73 2.4 SW 48 63 26 34 1004.9 - 0.2
06/10:00am 14.5 6.4 9.9 74 2.4 SSW 43 63 23 34 1004.1 - 0.0
06/09:47am 14.1 6.4 10.3 78 2.0 SSW 41 59 22 32 1004.1 - 0.0
06/09:30am 13.5 6.7 10.5 82 1.6 SW 37 50 20 27 1003.9 - 0.0
06/09:00am 13.3 6.1 10.7 84 1.4 SW 39 54 21 29 1003.3 1003.3 4.8
06/08:30am 12.9 5.5 11.3 90 0.8 SW 41 54 22 29 1002.8 - 4.8
06/08:01am 13.1 5.8 11.7 91 0.7 SW 41 59 22 32 1002.2 - 4.8
06/08:00am 13.1 5.5 11.7 91 0.7 SW 43 59 23 32 1002.2 - 4.8
06/07:30am 13.5 5.9 11.9 90 0.9 SW 43 70 23 38 1001.3 - 4.8
06/07:00am 13.4 4.9 12.1 92 0.7 SW 48 69 26 37 1000.8 - 4.8
06/06:35am 13.6 5.5 12.2 91 0.8 SW 46 65 25 35 1000.4 - 4.8
06/06:30am 13.6 4.8 12.2 91 0.8 SW 50 65 27 35 1000.3 - 4.8
06/06:01am 13.5 4.7 12.2 92 0.7 SW 50 70 27 38 1000.1 - 4.8
06/06:00am 13.5 5.1 12.2 92 0.7 SW 48 65 26 35 1000.1 1000.0 4.8
06/05:30am 13.7 3.7 12.6 93 0.6 WSW 57 80 31 43 1000.3 - 4.8
06/05:05am 13.8 4.8 12.9 94 0.5 WSW 52 70 28 38 1000.4 - 4.8
06/05:00am 13.8 4.5 12.9 94 0.5 WSW 54 70 29 38 1000.1 - 4.8
06/04:30am 13.7 3.0 12.9 95 0.4 WSW 61 85 33 46 1000.3 - 4.8
06/04:00am 13.5 3.6 12.9 96 0.3 WSW 57 78 31 42 1000.6 - 4.8
06/03:32am 13.6 3.8 12.8 95 0.4 WSW 56 74 30 40 1000.8 - 4.6
06/03:30am 13.5 3.7 12.7 95 0.4 WSW 56 70 30 38 1000.9 - 4.6
06/03:00am 13.3 3.9 12.7 96 0.3 WSW 54 76 29 41 1001.3 1001.2 4.4
06/02:30am 13.0 4.6 12.4 96 0.3 WSW 48 69 26 37 1002.5 - 4.2
06/02:00am 12.9 4.9 12.4 97 0.3 WSW 46 65 25 35 1003.0 - 3.6
06/01:30am 12.5 5.3 12.0 97 0.3 WSW 41 65 22 35 1003.8 - 3.0
06/01:01am 12.5 4.7 11.7 95 0.4 WSW 44 63 24 34 1004.1 - 2.2
06/01:00am 12.5 4.3 11.7 95 0.4 WSW 46 63 25 34 1004.1 - 2.2
06/12:40am 12.3 5.4 11.5 95 0.4 WSW 39 59 21 32 1004.4 - 2.0
06/12:30am 12.3 5.3 11.2 93 0.6 WSW 39 52 21 28 1004.4 - 1.8
06/12:03am 12.2 5.6 11.3 94 0.5 W 37 56 20 30 1005.0 - 1.2
06/12:00am 12.2 5.6 11.3 94 0.5 W 37 52 20 28 1005.0 1005.0 1.0
 
Date/Time
EDT
Temp
°C
App
Temp
°C
Dew
Point
Rel
Hum
%
Delta-T
°C
Wind Press
QNH
hPa
Press
MSL
hPa
Rain
since 9 am
mm
Dir
 
Spd
km/h
Gust
km/h
Spd
kts
Gust
kts
05/11:30pm 12.3 5.1 10.5 89 0.9 WSW 39 57 21 31 1005.8 - 0.6
05/11:10pm 12.5 5.5 9.9 84 1.3 W 37 56 20 30 1005.8 - 0.4
05/11:00pm 12.5 5.4 9.7 83 1.4 WSW 37 50 20 27 1006.1 - 0.4
05/10:30pm 12.5 6.6 10.4 87 1.1 W 32 44 17 24 1006.6 - 0.2
05/10:07pm 12.7 5.5 9.2 79 1.8 W 37 59 20 32 1006.5 - 0.2
05/10:00pm 12.3 5.8 9.1 81 1.6 W 33 48 18 26 1006.9 - 0.2
05/09:30pm 12.5 4.5 9.0 79 1.8 W 41 61 22 33 1007.3 - 0.2
05/09:11pm 12.8 4.7 8.7 76 2.0 W 41 61 22 33 1007.2 - 0.0
05/09:00pm 13.0 5.2 8.1 72 2.4 W 39 50 21 27 1007.2 1007.2 0.0
05/08:40pm 13.2 5.6 7.4 68 2.8 W 37 63 20 34 1007.2 - 0.0
05/08:30pm 13.2 6.0 7.6 69 2.7 W 35 50 19 27 1007.5 - 0.0
05/08:24pm 12.8 5.6 7.5 70 2.6 W 35 54 19 29 1007.5 - 0.0
05/08:00pm 13.0 6.3 8.3 73 2.3 W 33 50 18 27 1007.7 - 0.0
05/07:31pm 12.7 6.2 8.8 77 2.0 W 33 56 18 30 1008.4 - 0.0
05/07:30pm 12.6 6.0 8.5 76 2.0 W 33 46 18 25 1008.3 - 0.0
05/07:20pm 13.2 6.5 8.3 72 2.4 W 33 56 18 30 1008.6 - 0.0
05/07:00pm 12.5 5.5 8.6 77 1.9 W 35 52 19 28 1008.6 - 0.0
05/06:30pm 13.6 6.7 7.4 66 3.0 W 33 54 18 29 1009.0 - 0.0
05/06:29pm 13.7 6.8 7.2 65 3.2 W 33 52 18 28 1009.1 - 0.0
05/06:00pm 13.8 5.7 7.1 64 3.3 WSW 39 50 21 27 1009.4 1009.4 0.0
05/05:30pm 14.2 5.6 6.6 60 3.7 WSW 41 61 22 33 1009.7 - 0.0
05/05:00pm 14.8 7.2 7.4 61 3.6 WSW 37 59 20 32 1010.1 - 0.0
05/04:56pm 14.3 7.2 8.0 66 3.1 WSW 35 59 19 32 1010.3 - 0.0
05/04:30pm 14.3 5.6 6.2 58 3.9 W 41 57 22 31 1010.6 - 0.0
05/04:00pm 14.5 6.8 7.3 62 3.5 WSW 37 61 20 33 1011.2 - 0.0
05/03:51pm 13.8 5.6 8.4 70 2.7 WSW 41 61 22 33 1011.3 - 0.0
05/03:30pm 13.0 4.9 7.2 68 2.8 WSW 39 56 21 30 1011.5 - 0.0
05/03:23pm 14.8 6.3 5.3 53 4.5 WSW 39 57 21 31 1011.4 - 0.0
05/03:00pm 14.6 5.3 5.1 53 4.5 WSW 43 57 23 31 1011.7 1011.7 0.0
05/02:36pm 15.0 5.8 3.5 46 5.2 SW 41 65 22 35 1011.5 - 0.0
05/02:30pm 14.2 4.8 4.5 52 4.5 SW 43 56 23 30 1011.6 - 0.0
05/02:00pm 15.9 6.4 6.6 54 4.5 WSW 46 65 25 35 1012.0 - 0.0
05/01:30pm 15.1 6.0 5.9 54 4.4 SW 43 63 23 34 1012.3 - 0.0
05/01:00pm 14.8 5.4 4.2 49 4.9 WSW 43 61 23 33 1012.0 - 0.0
05/12:54pm 16.1 6.8 5.7 50 5.0 WSW 44 69 24 37 1012.0 - 0.0
05/12:37pm 15.6 7.7 6.1 53 4.6 SW 37 56 20 30 1012.3 - 0.0
05/12:30pm 15.6 8.6 8.6 63 3.6 SW 35 52 19 28 1012.5 - 0.0
05/12:08pm 11.4 2.7 7.7 78 1.8 SW 43 61 23 33 1013.0 - 0.0
05/12:00pm 14.5 5.2 6.1 57 4.0 SW 44 54 24 29 1012.8 1012.8 0.0
05/11:30am 13.7 5.5 6.6 62 3.4 SW 39 57 21 31 1012.9 - 0.0
05/11:13am 14.8 6.3 5.1 52 4.6 SW 39 57 21 31 1012.7 - 0.0
05/11:00am 13.7 5.6 5.1 56 4.0 SW 37 52 20 28 1013.0 - 0.0
05/10:35am 13.1 4.7 5.5 60 3.6 SW 39 61 21 33 1012.9 - 0.0
05/10:30am 12.9 4.3 4.8 58 3.7 SW 39 52 21 28 1012.7 - 0.0
05/10:00am 12.3 5.3 5.9 65 3.0 SSW 32 44 17 24 1012.6 - 0.0
05/09:42am 12.5 6.0 4.5 58 3.6 SW 28 50 15 27 1012.1 - 0.0
05/09:30am 11.9 4.4 4.6 61 3.3 SW 33 48 18 26 1011.8 - 0.0
05/09:00am 11.3 3.8 6.4 72 2.3 WSW 35 48 19 26 1011.6 1011.6 10.6
05/08:30am 10.7 4.8 5.9 72 2.2 WSW 26 30 14 16 1010.8 - 10.6
05/08:00am 9.0 3.1 5.6 79 1.5 SSW 26 32 14 17 1010.3 - 10.6
05/07:30am 8.9 3.7 5.3 78 1.6 WSW 22 30 12 16 1009.6 - 10.6
05/07:00am 8.4 2.4 5.3 81 1.4 SW 26 39 14 21 1009.1 - 10.6
05/06:30am 8.0 0.1 4.6 79 1.5 SW 35 48 19 26 1007.9 - 10.6
05/06:00am 9.1 1.5 5.8 80 1.5 SW 35 59 19 32 1007.4 1007.4 10.4
05/05:59am 9.0 1.7 5.6 79 1.5 SW 33 57 18 31 1007.2 - 10.4
05/05:30am 8.7 -0.1 5.6 81 1.4 WSW 41 52 22 28 1006.4 - 10.4
05/05:03am 8.9 1.6 5.6 80 1.5 SW 33 52 18 28 1005.7 - 10.2
05/05:00am 8.9 0.9 5.8 81 1.4 SW 37 52 20 28 1005.7 - 10.2
05/04:30am 9.1 2.3 6.7 85 1.1 WSW 32 43 17 23 1005.3 - 10.0
05/04:07am 9.2 2.3 6.5 83 1.3 SW 32 50 17 27 1004.7 - 9.8
05/04:00am 9.0 2.5 6.6 85 1.1 SW 30 43 16 23 1004.3 - 9.8
05/03:36am 9.3 -1.2 7.3 87 0.9 SW 52 70 28 38 1004.2 - 9.8
05/03:33am 9.4 -2.0 6.8 84 1.2 SW 56 70 30 38 1003.9 - 9.8
05/03:30am 9.3 2.0 7.3 87 0.9 WSW 35 65 19 35 1003.9 - 9.8
05/03:27am 9.2 3.0 7.8 91 0.7 WSW 30 48 16 26 1003.6 - 9.6
05/03:00am 8.8 2.5 7.3 90 0.7 SW 30 41 16 22 1003.2 1003.2 8.6
05/02:41am 9.2 2.6 7.6 90 0.8 WSW 32 50 17 27 1003.6 - 8.2
05/02:30am 9.2 3.3 7.3 88 0.9 WSW 28 37 15 20 1003.0 - 7.8
05/02:04am 9.6 -1.1 8.2 91 0.7 WSW 54 72 29 39 1003.4 - 7.8
05/02:00am 9.8 -1.3 7.9 88 0.9 WSW 56 72 30 39 1003.5 - 7.6
05/01:57am 10.1 -1.1 7.7 85 1.2 WSW 56 65 30 35 1003.4 - 7.6
05/01:35am 10.2 3.1 8.1 87 1.0 WSW 35 54 19 29 1002.7 - 7.6
05/01:30am 10.3 2.5 8.4 88 0.9 WSW 39 54 21 29 1002.8 - 7.6
05/01:07am 11.3 0.8 8.9 85 1.2 WSW 54 74 29 40 1002.7 - 7.0
05/01:02am 11.4 5.5 9.0 85 1.2 WSW 30 52 16 28 1002.6 - 7.0
05/01:00am 11.6 6.7 9.9 89 0.9 WSW 26 35 14 19 1002.6 - 7.0
05/12:30am 11.9 4.2 10.0 88 1.0 WSW 41 56 22 30 1002.2 - 7.0
05/12:12am 12.5 6.4 10.6 88 1.0 W 33 57 18 31 1002.1 - 6.8
05/12:00am 13.0 8.1 11.4 90 0.9 W 28 39 15 21 1001.8 1001.7 6.4
 
Date/Time
EDT
Temp
°C
App
Temp
°C
Dew
Point
Rel
Hum
%
Delta-T
°C
Wind Press
QNH
hPa
Press
MSL
hPa
Rain
since 9 am
mm
Dir
 
Spd
km/h
Gust
km/h
Spd
kts
Gust
kts
04/11:30pm 12.9 8.5 11.8 93 0.6 W 26 33 14 18 1002.1 - 6.4
04/11:00pm 12.9 8.1 11.5 91 0.7 W 28 39 15 21 1002.5 - 6.4
04/10:30pm 13.2 6.3 11.6 90 0.9 W 39 54 21 29 1003.0 - 6.2
04/10:19pm 13.8 7.6 12.7 93 0.6 W 37 59 20 32 1002.9 - 6.2
04/10:00pm 14.1 9.9 12.3 89 1.0 W 26 35 14 19 1003.0 - 5.0
04/09:30pm 13.7 10.8 12.8 94 0.5 W 20 28 11 15 1003.4 - 5.0
04/09:00pm 13.9 9.0 12.6 92 0.7 W 30 41 16 22 1003.6 1003.6 5.0
04/08:30pm 14.6 9.2 12.3 86 1.3 W 32 43 17 23 1003.5 - 4.8
04/08:00pm 14.9 10.2 14.3 96 0.3 W 32 41 17 22 1003.8 - 4.8
04/07:49pm 14.8 10.9 14.3 97 0.3 WNW 28 52 15 28 1003.5 - 4.8
04/07:30pm 15.0 12.2 14.2 95 0.5 WNW 22 32 12 17 1003.8 - 2.6
04/07:00pm 15.2 11.3 13.4 89 1.0 WNW 26 35 14 19 1004.3 - 2.2
04/06:30pm 16.1 13.4 12.8 81 1.8 W 19 30 10 16 1004.9 - 2.2
04/06:00pm 15.9 12.4 13.4 85 1.4 W 24 30 13 16 1005.4 1005.4 2.2
04/05:30pm 15.3 10.0 13.1 87 1.2 W 33 46 18 25 1005.7 - 2.2
04/05:00pm 15.3 9.5 13.8 91 0.8 W 37 50 20 27 1006.1 - 1.4
04/04:43pm 17.7 11.0 12.2 70 3.0 W 39 59 21 32 1006.0 - 1.0
04/04:30pm 18.0 12.3 12.9 72 2.9 WNW 35 50 19 27 1006.1 - 1.0
04/04:00pm 17.5 13.3 13.6 78 2.2 W 28 43 15 23 1006.5 - 1.0
04/03:30pm 15.7 10.5 14.6 93 0.6 W 35 46 19 25 1007.4 - 1.0
04/03:10pm 15.8 11.3 15.0 95 0.5 W 32 50 17 27 1007.3 - 0.8
04/03:00pm 16.0 12.3 15.0 94 0.6 W 28 39 15 21 1007.3 1007.3 0.8
04/02:30pm 18.4 12.8 13.3 72 2.9 WNW 35 56 19 30 1007.4 - 0.4
04/02:14pm 17.9 12.1 12.8 72 2.8 W 35 57 19 31 1007.4 - 0.4
04/02:00pm 20.1 13.5 13.6 66 3.7 WNW 41 52 22 28 1007.6 - 0.4
04/01:30pm 19.6 13.7 12.4 63 4.0 W 35 50 19 27 1007.7 - 0.4
04/01:00pm 18.8 14.0 13.9 73 2.8 WNW 32 44 17 24 1008.1 - 0.4
04/12:30pm 16.4 12.4 14.1 86 1.3 W 28 35 15 19 1009.1 - 0.4
04/12:00pm 15.6 11.6 14.1 91 0.8 W 28 41 15 22 1009.6 1009.6 0.2
04/11:30am 19.2 13.1 11.7 62 4.1 W 35 54 19 29 1009.3 - 0.0
04/11:10am 19.6 12.5 12.1 62 4.2 WNW 41 59 22 32 1009.5 - 0.0
04/11:00am 19.0 12.1 11.6 62 4.1 WNW 39 56 21 30 1009.7 - 0.0
04/10:34am 18.6 12.4 11.4 63 3.9 W 35 56 19 30 1009.8 - 0.0
04/10:30am 18.9 12.8 11.9 64 3.9 W 35 44 19 24 1009.9 - 0.0
04/10:09am 17.9 13.2 12.1 69 3.2 W 28 46 15 25 1010.2 - 0.0
04/10:00am 17.8 11.9 12.3 70 3.0 W 35 48 19 26 1010.2 - 0.0
04/09:33am 17.4 12.8 12.3 72 2.8 WNW 28 46 15 25 1010.2 - 0.0
04/09:30am 17.2 12.7 12.5 74 2.6 WNW 28 37 15 20 1010.3 - 0.0
04/09:00am 16.1 11.4 11.9 76 2.3 WNW 28 41 15 22 1010.4 1010.4 0.2
04/08:30am 14.8 11.8 12.5 86 1.3 W 20 26 11 14 1010.6 - 0.2
04/08:00am 14.1 10.5 11.8 86 1.2 W 22 30 12 16 1010.2 - 0.2
04/07:30am 14.6 11.5 11.6 82 1.6 WNW 19 22 10 12 1010.1 - 0.2
04/07:00am 13.9 11.0 11.1 83 1.5 WNW 17 24 9 13 1010.0 - 0.2
04/06:30am 14.2 10.8 10.4 78 2.0 W 19 28 10 15 1010.3 - 0.2
04/06:00am 14.3 10.3 10.3 77 2.1 W 22 28 12 15 1010.4 1010.4 0.2
04/05:30am 13.7 9.5 11.2 85 1.3 WSW 24 33 13 18 1010.6 - 0.2
04/05:00am 14.6 11.0 10.4 76 2.2 W 20 26 11 14 1010.6 - 0.2
04/04:30am 14.3 10.3 10.5 78 2.0 WSW 22 32 12 17 1010.8 - 0.2
04/04:00am 15.0 10.9 8.5 65 3.3 WNW 20 30 11 16 1010.9 - 0.2
04/03:30am 14.0 12.5 9.2 73 2.4 W 7 11 4 6 1011.2 - 0.2
04/03:00am 14.4 10.9 8.6 68 2.9 W 17 30 9 16 1011.8 1011.8 0.2
04/02:30am 14.0 11.5 8.0 67 3.0 WNW 11 13 6 7 1012.1 - 0.2
04/02:00am 14.1 11.1 7.9 66 3.1 W 13 19 7 10 1012.6 - 0.2
04/01:30am 14.3 11.2 7.4 63 3.4 W 13 17 7 9 1012.9 - 0.2
04/01:00am 14.3 10.6 7.8 65 3.2 W 17 22 9 12 1013.3 - 0.2
04/12:30am 14.3 11.2 8.7 69 2.8 W 15 30 8 16 1013.5 - 0.2
04/12:00am 13.8 11.1 9.0 73 2.4 W 13 17 7 9 1013.7 1013.7 0.2
 
Date/Time
EDT
Temp
°C
App
Temp
°C
Dew
Point
Rel
Hum
%
Delta-T
°C
Wind Press
QNH
hPa
Press
MSL
hPa
Rain
since 9 am
mm
Dir
 
Spd
km/h
Gust
km/h
Spd
kts
Gust
kts
03/11:30pm 13.1 11.7 9.7 80 1.7 SW 7 9 4 5 1014.0 - 0.2
03/11:00pm 12.9 11.6 9.9 82 1.5 SW 7 9 4 5 1014.2 - 0.2
03/10:30pm 13.4 11.3 9.8 79 1.8 WSW 11 15 6 8 1014.4 - 0.2
03/10:00pm 13.3 11.2 9.9 80 1.7 WSW 11 15 6 8 1014.5 - 0.2
03/09:30pm 13.8 12.1 9.8 77 2.1 WSW 9 11 5 6 1014.5 - 0.2
03/09:00pm 14.0 12.3 9.8 76 2.2 W 9 11 5 6 1014.5 1014.5 0.2
03/08:30pm 14.0 12.1 9.2 73 2.4 W 9 11 5 6 1014.4 - 0.2
03/08:00pm 14.9 12.7 9.3 69 2.9 W 11 15 6 8 1014.2 - 0.2
03/07:30pm 15.5 12.0 8.7 64 3.5 W 17 22 9 12 1014.2 - 0.2
03/07:00pm 16.0 12.4 8.2 60 3.9 WSW 17 20 9 11 1014.3 - 0.2
03/06:30pm 16.9 12.7 8.1 56 4.5 W 20 28 11 15 1014.2 - 0.2
03/06:00pm 17.2 12.4 7.5 53 4.9 W 22 35 12 19 1014.5 1014.5 0.2
03/05:30pm 17.9 11.9 7.0 49 5.4 W 28 41 15 22 1014.5 - 0.2
03/05:00pm 17.6 11.3 7.4 51 5.1 W 30 39 16 21 1014.6 - 0.2
03/04:30pm 18.6 12.7 7.4 48 5.7 WSW 28 37 15 20 1014.8 - 0.2
03/04:00pm 19.0 14.5 8.4 50 5.5 W 22 32 12 17 1015.0 - 0.2
03/03:30pm 18.3 12.1 7.7 50 5.4 W 30 41 16 22 1015.1 - 0.2
03/03:00pm 18.5 12.0 6.4 45 6.0 W 30 39 16 21 1015.5 1015.5 0.2
03/02:57pm 18.7 12.4 7.2 47 5.8 W 30 48 16 26 1015.5 - 0.2
03/02:30pm 19.4 13.2 6.2 42 6.6 W 28 41 15 22 1015.6 - 0.2
03/02:00pm 20.4 14.2 7.7 44 6.5 W 30 44 16 24 1015.5 - 0.2

Other Formats:

Comma delimited format used in spreadsheet applications
http://www.bom.gov.au/fwo/IDT60801/IDT60801.94953.axf

JavaScript Object Notation format (JSON) in row-major order
http://www.bom.gov.au/fwo/IDT60801/IDT60801.94953.json